Overview Statistics Trail Chart Weather Telemetry Raw packets
 

This is the latest recevied weather packets stored in our database for station/object EA1HTW-13. If no packets are shown the sender has not sent any weather packets the latest 10 day(s).

<< 33 34 35 36 37 38 39 >>
Time Temp. Humidity Pressure Rain* Wind** Luminosity Snow
1777569435 18.89° C 61% 1010.7 hPa 0 mm - - -
1777568893 18.89° C 61% 1010.7 hPa 0 mm - - -
1777568354 19.44° C 60% 1010.9 hPa 0 mm - - -
1777567823 20° C 60% 1010.7 hPa 0 mm - - -
1777567283 20° C 61% 1010.7 hPa 0 mm - - -
1777566742 20° C 62% 1010.7 hPa 0 mm - - -
1777566201 19.44° C 62% 1010.6 hPa 0 mm - - -
1777565662 19.44° C 61% 1010.6 hPa 0 mm - - -
1777565123 20° C 61% 1010.7 hPa 0 mm - - -
1777564582 20.56° C 60% 1010.6 hPa 0 mm - - -
1777564043 21.67° C 56% 1010.7 hPa 0 mm - - -
1777563502 22.78° C 52% 1010.5 hPa 0 mm - - -
1777562963 22.78° C 53% 1010.5 hPa 0 mm - - -
1777562423 22.78° C 54% 1010.5 hPa 0 mm - - -
1777561882 21.11° C 61% 1010.5 hPa 0 mm - - -
1777561342 20.56° C 60% 1010.4 hPa 0 mm - - -
1777560803 20° C 61% 1010.6 hPa 0 mm - - -
1777560262 19.44° C 61% 1010.4 hPa 0 mm - - -
1777559723 20° C 62% 1010.3 hPa 0 mm - - -
1777559182 19.44° C 64% 1010.5 hPa 0 mm - - -
1777558643 18.89° C 63% 1010.6 hPa 0 mm - - -
1777558104 18.89° C 63% 1010.7 hPa 0 mm - - -
1777557563 18.89° C 64% 1010.6 hPa 0 mm - - -
1777557023 18.33° C 66% 1010.4 hPa 0 mm - - -
1777556483 18.33° C 67% 1010.4 hPa 0 mm - - -

* Rain latest hour (hover to see other rain measurements)
** Current wind speed in m/s (hover to see current wind gust speed)